createdAt,value
2019-04-11T00:02:17.403Z,87.58
2019-04-11T00:04:46.417Z,87.78
2019-04-11T00:07:16.154Z,88.11
2019-04-11T00:09:45.010Z,88.17
2019-04-11T00:12:14.522Z,88.12
2019-04-11T00:14:44.203Z,88.49
2019-04-11T00:17:17.509Z,88.74
2019-04-11T00:19:47.435Z,89.22
2019-04-11T00:22:17.301Z,90.50
2019-04-11T00:24:47.149Z,91.14
2019-04-11T00:27:17.132Z,91.80
2019-04-11T00:29:46.984Z,92.45
2019-04-11T00:32:17.035Z,92.60
2019-04-11T00:34:47.010Z,92.04
2019-04-11T00:37:16.902Z,92.68
2019-04-11T00:39:45.876Z,93.53
2019-04-11T00:42:14.618Z,94.40
2019-04-11T00:44:43.318Z,94.42
2019-04-11T00:47:15.148Z,94.01
2019-04-11T00:49:44.177Z,93.59
2019-04-11T00:52:13.981Z,93.72
2019-04-11T00:54:43.130Z,93.36
2019-04-11T00:57:12.780Z,93.25
2019-04-11T00:59:42.617Z,93.16
2019-04-11T01:02:15.522Z,92.91
2019-04-11T01:04:45.340Z,92.82
2019-04-11T01:07:14.515Z,92.68
2019-04-11T01:09:44.305Z,92.63
2019-04-11T01:12:13.215Z,92.54
2019-04-11T01:14:42.697Z,92.54
2019-04-11T01:17:17.058Z,92.64
2019-04-11T01:19:46.808Z,92.24
2019-04-11T01:22:16.205Z,92.17
2019-04-11T01:24:46.057Z,92.32
2019-04-11T01:27:16.059Z,92.30
2019-04-11T01:29:44.943Z,92.48
2019-04-11T01:32:14.640Z,91.78
2019-04-11T01:34:44.528Z,91.90
2019-04-11T01:37:13.394Z,91.91
2019-04-11T01:39:43.738Z,91.88
2019-04-11T01:42:13.216Z,91.89
2019-04-11T01:44:43.014Z,91.65
2019-04-11T01:47:15.018Z,91.62
2019-04-11T01:49:44.098Z,91.71
2019-04-11T01:52:13.926Z,91.71
2019-04-11T01:54:43.795Z,92.16
2019-04-11T01:57:13.777Z,91.97
2019-04-11T01:59:43.728Z,91.58
2019-04-11T02:02:17.112Z,91.27
2019-04-11T02:04:50.155Z,92.09
2019-04-11T02:07:18.876Z,91.72
2019-04-11T02:09:48.452Z,91.29
2019-04-11T02:12:18.240Z,91.50
2019-04-11T02:14:48.130Z,91.57
2019-04-11T02:17:16.890Z,91.78
2019-04-11T02:19:45.611Z,91.57
2019-04-11T02:22:15.987Z,91.64
2019-04-11T02:24:54.060Z,91.48
2019-04-11T02:27:25.888Z,91.74
2019-04-11T02:29:55.182Z,91.79
2019-04-11T02:32:25.510Z,91.87
2019-04-11T02:34:58.902Z,92.07
2019-04-11T02:37:26.354Z,91.27
2019-04-11T02:39:57.480Z,90.86
2019-04-11T02:42:27.483Z,91.18
2019-04-11T02:45:13.422Z,91.49
2019-04-11T02:47:31.832Z,91.64
2019-04-11T02:49:59.172Z,91.92
2019-04-11T02:52:28.268Z,92.67
2019-04-11T02:54:57.449Z,91.99
2019-04-11T02:57:26.516Z,91.56
2019-04-11T02:59:56.404Z,91.47
2019-04-11T03:02:26.634Z,92.13
2019-04-11T03:04:56.383Z,91.81
2019-04-11T03:07:25.865Z,91.67
2019-04-11T03:09:56.441Z,91.90
2019-04-11T03:12:25.059Z,92.03
2019-04-11T03:15:09.317Z,91.41
2019-04-11T03:17:30.773Z,91.60
2019-04-11T03:20:09.231Z,91.91
2019-04-11T03:22:26.948Z,91.96
2019-04-11T03:24:58.319Z,92.11
2019-04-11T03:27:28.675Z,92.26
2019-04-11T03:29:58.062Z,91.93
2019-04-11T03:35:50.962Z,91.56
2019-04-11T03:37:55.128Z,90.84
2019-04-11T03:40:22.662Z,90.96
2019-04-11T03:42:45.158Z,91.46
2019-04-11T03:45:23.945Z,91.65
2019-04-11T03:47:43.516Z,91.86
2019-04-11T03:50:08.541Z,91.34
2019-04-11T03:52:34.804Z,91.24
2019-04-11T03:55:08.389Z,90.97
2019-04-11T03:57:37.310Z,90.76
2019-04-11T04:00:07.558Z,90.72
2019-04-11T04:02:37.189Z,90.61
2019-04-11T04:05:08.776Z,90.68
2019-04-11T04:07:40.107Z,90.45
2019-04-11T04:10:18.399Z,91.03
2019-04-11T04:12:48.100Z,91.01
2019-04-11T04:15:35.765Z,90.52
2019-04-11T04:18:03.533Z,90.42
2019-04-11T04:20:53.189Z,90.68
2019-04-11T04:23:30.013Z,90.83
2019-04-11T04:26:01.107Z,90.58
2019-04-11T04:28:31.806Z,90.98
2019-04-11T04:31:02.092Z,90.09
2019-04-11T04:33:33.023Z,89.73
2019-04-11T04:36:02.396Z,89.61
2019-04-11T04:38:33.772Z,89.73
2019-04-11T04:41:16.868Z,89.78
2019-04-11T04:43:36.401Z,89.15
2019-04-11T04:46:25.033Z,88.93
2019-04-11T04:48:37.846Z,88.83
2019-04-11T04:51:09.109Z,87.71
2019-04-11T04:53:36.934Z,87.55
2019-04-11T04:56:06.773Z,87.60
2019-04-11T04:58:35.743Z,86.95
2019-04-11T05:01:06.890Z,86.78
2019-04-11T05:03:34.949Z,86.27
2019-04-11T05:06:04.249Z,85.51
2019-04-11T05:08:34.691Z,85.82
2019-04-11T05:11:04.508Z,85.30
2019-04-11T05:13:34.422Z,85.23
2019-04-11T05:16:14.530Z,84.06
2019-04-11T05:18:34.312Z,83.61
2019-04-11T05:21:03.320Z,81.95
2019-04-11T05:23:32.041Z,80.11
2019-04-11T05:26:01.614Z,79.84
2019-04-11T05:28:31.784Z,79.18
2019-04-11T05:31:00.622Z,78.66
2019-04-11T05:33:29.463Z,77.20
2019-04-11T05:35:58.529Z,76.33
2019-04-11T05:38:27.570Z,76.53
2019-04-11T05:40:56.641Z,77.12
2019-04-11T05:43:29.301Z,77.65
2019-04-11T05:45:56.752Z,77.10
2019-04-11T05:48:36.844Z,77.65
2019-04-11T05:51:06.833Z,77.20
2019-04-11T05:53:36.974Z,76.11
2019-04-11T05:56:16.722Z,75.91
2019-04-11T05:58:47.364Z,75.89
2019-04-11T06:01:24.378Z,75.75
2019-04-11T06:03:55.526Z,76.02
2019-04-11T06:06:31.970Z,75.29
2019-04-11T06:09:04.060Z,76.04
2019-04-11T06:11:34.919Z,76.33
2019-04-11T06:14:11.437Z,76.61
2019-04-11T06:16:47.278Z,77.44
2019-04-11T06:19:22.863Z,76.74
2019-04-11T06:22:00.282Z,76.54
2019-04-11T06:24:40.609Z,76.08
2019-04-11T06:27:16.695Z,76.32
2019-04-11T06:29:47.418Z,76.24
2019-04-11T06:32:27.856Z,75.79
2019-04-11T06:35:04.182Z,75.87
2019-04-11T06:37:52.592Z,75.55
2019-04-11T06:40:32.679Z,74.45
2019-04-11T06:43:20.306Z,74.10
2019-04-11T06:45:50.762Z,73.47
2019-04-11T06:48:30.035Z,71.09
2019-04-11T06:51:06.106Z,70.72
2019-04-11T06:53:36.515Z,69.17
2019-04-11T06:56:06.858Z,66.99
2019-04-11T06:58:39.855Z,65.30
2019-04-11T07:01:16.024Z,66.42
2019-04-11T07:03:49.270Z,64.32
2019-04-11T07:06:23.553Z,65.40
2019-04-11T07:09:10.728Z,64.46
2019-04-11T07:11:53.128Z,65.00
2019-04-11T07:14:23.523Z,64.79
2019-04-11T07:17:15.408Z,64.55
2019-04-11T07:19:48.797Z,65.01
2019-04-11T07:22:35.278Z,65.58
2019-04-11T07:25:22.663Z,65.89
2019-04-11T07:28:02.140Z,65.03
2019-04-11T07:30:49.502Z,66.47
2019-04-11T07:33:33.261Z,66.83
2019-04-11T07:36:20.994Z,65.18
2019-04-11T07:39:03.667Z,63.71
2019-04-11T07:41:38.547Z,65.55
2019-04-11T07:44:17.724Z,65.59
2019-04-11T07:47:13.628Z,64.88
2019-04-11T07:49:39.331Z,62.31
2019-04-11T07:52:17.594Z,63.61
2019-04-11T07:54:46.320Z,63.55
2019-04-11T07:57:17.171Z,65.25
2019-04-11T08:00:03.641Z,62.56
2019-04-11T08:02:50.498Z,62.48
2019-04-11T08:05:37.317Z,63.13
2019-04-11T08:08:24.150Z,63.66
2019-04-11T08:11:03.393Z,63.88
2019-04-11T08:13:34.645Z,64.00
2019-04-11T08:16:22.383Z,63.11
2019-04-11T08:19:03.489Z,63.50
2019-04-11T08:21:50.425Z,61.59
2019-04-11T08:24:29.864Z,61.17
2019-04-11T08:27:17.563Z,60.59
2019-04-11T08:29:48.855Z,58.44
2019-04-11T08:32:25.455Z,59.27
2019-04-11T08:35:02.074Z,57.38
2019-04-11T08:37:48.555Z,57.15
2019-04-11T08:40:19.849Z,57.57
2019-04-11T08:42:50.896Z,56.32
2019-04-11T08:45:21.577Z,54.65
2019-04-11T08:47:54.614Z,54.37
2019-04-11T08:50:23.684Z,55.25
2019-04-11T08:52:56.739Z,53.93
2019-04-11T08:55:27.340Z,53.18
2019-04-11T08:57:58.327Z,54.67
2019-04-11T09:00:34.852Z,55.13
2019-04-11T09:03:05.179Z,55.00
2019-04-11T09:05:44.473Z,56.69
2019-04-11T09:08:30.167Z,55.42
2019-04-11T09:11:17.017Z,54.03
2019-04-11T09:13:53.585Z,54.65
2019-04-11T09:16:39.637Z,54.92
2019-04-11T09:19:10.469Z,54.68
2019-04-11T09:21:56.947Z,53.86
2019-04-11T09:24:39.259Z,54.82
2019-04-11T09:27:22.596Z,55.43
2019-04-11T09:29:58.962Z,55.60
2019-04-11T09:32:46.519Z,56.23
2019-04-11T09:35:22.665Z,56.84
2019-04-11T09:37:51.805Z,56.24
2019-04-11T09:40:39.587Z,55.63
2019-04-11T09:43:17.895Z,55.68
2019-04-11T09:46:04.627Z,54.03
2019-04-11T09:48:50.514Z,53.45
2019-04-11T09:51:38.035Z,55.13
2019-04-11T09:54:26.784Z,54.98
2019-04-11T09:57:06.017Z,55.54
2019-04-11T09:59:49.627Z,54.50
2019-04-11T10:02:20.970Z,53.34
2019-04-11T10:04:52.250Z,52.73
2019-04-11T10:07:28.575Z,51.74
2019-04-11T10:10:04.765Z,52.99
2019-04-11T10:12:52.060Z,53.68
2019-04-11T10:15:23.252Z,52.57
2019-04-11T10:18:25.329Z,52.38
2019-04-11T10:20:45.601Z,51.14
2019-04-11T10:23:32.759Z,52.26
2019-04-11T10:26:03.412Z,50.75
2019-04-11T10:28:43.910Z,50.68
2019-04-11T10:31:12.752Z,50.39
2019-04-11T10:33:58.011Z,50.74
2019-04-11T10:36:29.349Z,51.59
2019-04-11T10:39:15.394Z,50.55
2019-04-11T10:41:46.307Z,50.07
2019-04-11T10:44:25.735Z,49.95
2019-04-11T10:47:02.059Z,49.99
2019-04-11T10:49:48.743Z,50.85
2019-04-11T10:52:28.781Z,50.78
2019-04-11T10:55:05.247Z,50.40
2019-04-11T10:57:38.377Z,50.85
2019-04-11T11:00:18.911Z,51.29
2019-04-11T11:05:47.233Z,51.02
2019-04-11T11:08:33.323Z,50.13
2019-04-11T11:11:07.853Z,50.21
2019-04-11T11:13:39.527Z,49.66
2019-04-11T11:16:10.238Z,49.68
2019-04-11T11:19:24.593Z,50.37
2019-04-11T11:21:30.568Z,51.77
2019-04-11T11:24:05.388Z,51.86
2019-04-11T11:26:33.752Z,53.08
2019-04-11T11:29:15.789Z,52.25
2019-04-11T11:31:49.381Z,52.56
2019-04-11T11:34:23.677Z,51.24
2019-04-11T11:36:54.973Z,50.15
2019-04-11T11:39:43.582Z,50.63
2019-04-11T11:42:30.430Z,49.34
2019-04-11T11:45:02.377Z,49.50
2019-04-11T11:47:51.139Z,48.85
2019-04-11T11:50:23.419Z,49.33
2019-04-11T11:53:12.948Z,48.72
2019-04-11T11:55:41.406Z,47.41
2019-04-11T11:58:23.710Z,48.78
2019-04-11T12:00:56.909Z,49.43
2019-04-11T12:03:30.993Z,48.87
2019-04-11T12:06:05.297Z,48.95
2019-04-11T12:08:46.589Z,48.29
2019-04-11T12:11:18.778Z,48.97
2019-04-11T12:13:49.116Z,49.08
2019-04-11T12:16:21.601Z,48.64
2019-04-11T12:19:04.624Z,48.70
2019-04-11T12:21:35.170Z,50.28
2019-04-11T12:24:07.057Z,50.88
2019-04-11T12:26:45.782Z,50.08
2019-04-11T12:29:32.252Z,49.65
2019-04-11T12:32:02.751Z,51.63
2019-04-11T12:34:33.024Z,51.85
2019-04-11T12:37:02.595Z,51.48
2019-04-11T12:39:51.176Z,50.90
2019-04-11T12:42:21.448Z,49.54
2019-04-11T12:45:07.777Z,50.47
2019-04-11T12:47:38.630Z,50.86
2019-04-11T12:50:28.020Z,51.84
2019-04-11T12:53:04.456Z,50.57
2019-04-11T12:55:50.058Z,50.94
2019-04-11T12:58:20.392Z,49.36
2019-04-11T13:01:02.516Z,50.68
2019-04-11T13:03:48.979Z,52.01
2019-04-11T13:06:35.847Z,51.55
2019-04-11T13:09:15.292Z,51.78
2019-04-11T13:11:48.272Z,51.41
2019-04-11T13:14:21.607Z,51.60
2019-04-11T13:16:51.945Z,52.58
2019-04-11T13:19:31.439Z,52.40
2019-04-11T13:22:01.722Z,52.29
2019-04-11T13:24:40.989Z,52.38
2019-04-11T13:27:20.422Z,52.69
2019-04-11T13:30:05.689Z,53.31
2019-04-11T13:32:35.971Z,54.07
2019-04-11T13:35:14.585Z,58.35
2019-04-11T13:37:56.892Z,60.15
2019-04-11T13:40:30.537Z,60.94
2019-04-11T13:43:16.860Z,62.25
2019-04-11T13:46:02.191Z,61.06
2019-04-11T13:48:48.689Z,59.35
2019-04-11T13:51:31.458Z,58.13
2019-04-11T13:54:19.129Z,59.22
2019-04-11T13:57:05.544Z,59.39
2019-04-11T13:59:35.838Z,59.34
2019-04-11T14:02:15.203Z,59.68
2019-04-11T14:04:46.327Z,58.09
2019-04-11T14:07:21.268Z,58.05
2019-04-11T14:09:51.525Z,57.25
2019-04-11T14:12:20.267Z,57.60
2019-04-11T14:14:51.970Z,56.65
2019-04-11T14:17:30.963Z,56.50
2019-04-11T14:20:28.610Z,56.25
2019-04-11T14:22:49.447Z,54.84
2019-04-11T14:25:23.478Z,53.75
2019-04-11T14:27:53.772Z,53.49
2019-04-11T14:30:40.174Z,53.52
2019-04-11T14:33:08.884Z,53.93
2019-04-11T14:35:57.669Z,53.03
2019-04-11T14:38:27.144Z,53.57
2019-04-11T14:41:01.766Z,53.01
2019-04-11T14:43:35.576Z,52.36
2019-04-11T14:46:12.409Z,52.19
2019-04-11T14:48:42.717Z,51.55
2019-04-11T14:51:15.952Z,52.57
2019-04-11T14:54:03.450Z,52.39
2019-04-11T14:56:33.737Z,52.66
2019-04-11T14:59:07.005Z,53.13
2019-04-11T15:01:35.817Z,52.89
2019-04-11T15:04:06.107Z,53.37
2019-04-11T15:06:36.402Z,53.25
2019-04-11T15:09:16.872Z,53.72
2019-04-11T15:11:50.256Z,53.31
2019-04-11T15:14:36.916Z,52.85
2019-04-11T15:17:10.006Z,53.25
2019-04-11T15:19:40.276Z,53.98
2019-04-11T15:22:27.102Z,53.46
2019-04-11T15:25:13.720Z,53.74
2019-04-11T15:27:47.080Z,54.06
2019-04-11T15:30:22.356Z,53.35
2019-04-11T15:32:55.398Z,53.23
2019-04-11T15:35:24.110Z,53.89
2019-04-11T15:38:15.330Z,53.96
2019-04-11T15:40:44.937Z,53.45
2019-04-11T15:43:31.674Z,54.24
2019-04-11T15:46:02.063Z,54.48
2019-04-11T15:48:35.098Z,54.37
2019-04-11T15:51:17.396Z,55.21
2019-04-11T15:53:47.678Z,55.42
2019-04-11T15:56:37.857Z,55.52
2019-04-11T15:59:06.446Z,54.91
2019-04-11T16:01:39.926Z,55.02
2019-04-11T16:04:10.203Z,55.28
2019-04-11T16:06:40.545Z,56.17
2019-04-11T16:09:11.959Z,56.46
2019-04-11T16:11:58.523Z,56.72
2019-04-11T16:14:27.251Z,56.95
2019-04-11T16:16:57.535Z,57.26
2019-04-11T16:19:36.724Z,56.99
2019-04-11T16:22:16.218Z,56.89
2019-04-11T16:24:46.553Z,56.91
2019-04-11T16:27:17.333Z,56.29
2019-04-11T16:29:50.376Z,55.98
2019-04-11T16:32:19.490Z,55.50
2019-04-11T16:34:54.346Z,54.73
2019-04-11T16:37:20.198Z,55.40
2019-04-11T16:40:06.621Z,55.13
2019-04-11T16:42:36.963Z,54.99
2019-04-11T16:45:25.730Z,55.22
2019-04-11T16:48:03.792Z,54.79
2019-04-11T16:50:32.492Z,54.93
2019-04-11T16:53:01.208Z,54.88
2019-04-11T16:55:29.927Z,54.65
2019-04-11T16:57:58.918Z,55.54
2019-04-11T17:00:27.649Z,55.44
2019-04-11T17:02:56.353Z,55.36
2019-04-11T17:05:26.829Z,55.28
2019-04-11T17:08:09.220Z,55.99
2019-04-11T17:10:57.532Z,56.31
2019-04-11T17:13:26.758Z,56.88
2019-04-11T17:15:55.569Z,57.58
2019-04-11T17:18:24.273Z,57.38
2019-04-11T17:20:52.979Z,57.25
2019-04-11T17:23:21.704Z,57.67
2019-04-11T17:25:52.898Z,57.46
2019-04-11T17:28:23.105Z,58.19
2019-04-11T17:30:55.062Z,58.46
2019-04-11T17:33:21.774Z,58.66
2019-04-11T17:35:50.499Z,59.18
2019-04-11T17:38:19.215Z,59.01
2019-04-11T17:40:47.969Z,59.53
2019-04-11T17:43:16.671Z,59.40
2019-04-11T17:45:45.372Z,59.30
2019-04-11T17:48:18.174Z,59.42
2019-04-11T17:50:46.888Z,58.75
2019-04-11T17:53:18.930Z,59.16
2019-04-11T17:55:47.739Z,59.10
2019-04-11T17:58:16.447Z,59.21
2019-04-11T18:00:52.709Z,59.64
2019-04-11T18:03:21.425Z,59.47
2019-04-11T18:05:50.180Z,59.51
2019-04-11T18:08:20.194Z,59.88
2019-04-11T18:10:49.744Z,59.79
2019-04-11T18:13:18.691Z,59.50
2019-04-11T18:15:47.410Z,58.89
2019-04-11T18:18:19.606Z,58.55
2019-04-11T18:20:48.321Z,58.18
2019-04-11T18:23:19.633Z,57.76
2019-04-11T18:25:48.928Z,57.11
2019-04-11T18:28:21.692Z,57.10
2019-04-11T18:30:48.889Z,57.51
2019-04-11T18:33:17.598Z,57.41
2019-04-11T18:35:46.307Z,57.44
2019-04-11T18:38:17.392Z,57.54
2019-04-11T18:40:46.110Z,57.19
2019-04-11T18:43:18.855Z,56.64
2019-04-11T18:45:47.564Z,56.59
2019-04-11T18:48:16.274Z,57.10
2019-04-11T18:50:44.984Z,57.48
2019-04-11T18:53:13.689Z,58.17
2019-04-11T18:55:42.449Z,58.75
2019-04-11T18:58:11.157Z,57.91
2019-04-11T19:00:39.870Z,58.28
2019-04-11T19:03:17.595Z,58.10
2019-04-11T19:05:46.297Z,58.52
2019-04-11T19:08:17.625Z,58.26
2019-04-11T19:10:46.305Z,58.36
2019-04-11T19:13:16.975Z,59.29
2019-04-11T19:15:46.379Z,59.11
2019-04-11T19:18:16.404Z,59.52
2019-04-11T19:20:50.065Z,59.87
2019-04-11T19:23:16.181Z,60.15
2019-04-11T19:25:45.299Z,60.46
2019-04-11T19:28:18.758Z,60.11
2019-04-11T19:30:47.458Z,60.69
2019-04-11T19:33:20.718Z,60.38
2019-04-11T19:35:49.461Z,60.11
2019-04-11T19:38:28.804Z,60.20
2019-04-11T19:40:57.569Z,60.28
2019-04-11T19:43:26.283Z,60.14
2019-04-11T19:45:54.987Z,60.00
2019-04-11T19:48:25.209Z,60.12
2019-04-11T19:50:54.171Z,59.92
2019-04-11T19:53:22.895Z,59.64
2019-04-11T19:55:56.127Z,59.41
2019-04-11T19:58:26.407Z,60.05
2019-04-11T20:00:55.173Z,58.61
2019-04-11T20:03:24.251Z,58.52
2019-04-11T20:05:54.669Z,58.86
2019-04-11T20:08:23.391Z,59.17
2019-04-11T20:10:52.104Z,59.86
2019-04-11T20:13:20.865Z,59.52
2019-04-11T20:15:50.656Z,59.51
2019-04-11T20:18:22.191Z,59.99
2019-04-11T20:20:52.191Z,60.15
2019-04-11T20:23:20.511Z,60.17
2019-04-11T20:25:50.000Z,60.51
2019-04-11T20:28:19.962Z,63.75
2019-04-11T20:30:49.446Z,66.17
2019-04-11T20:33:27.091Z,65.79
2019-04-11T20:35:49.434Z,65.74
2019-04-11T20:38:18.210Z,65.79
2019-04-11T20:40:46.926Z,65.58
2019-04-11T20:43:15.637Z,65.37
2019-04-11T20:45:45.157Z,67.35
2019-04-11T20:48:13.877Z,67.57
2019-04-11T20:50:42.633Z,66.98
2019-04-11T20:53:13.167Z,67.03
2019-04-11T20:55:41.789Z,67.82
2019-04-11T20:58:26.690Z,68.70
2019-04-11T21:00:50.744Z,68.72
2019-04-11T21:03:20.413Z,68.64
2019-04-11T21:05:49.116Z,68.79
2019-04-11T21:08:17.827Z,69.36
2019-04-11T21:10:46.545Z,69.22
2019-04-11T21:13:15.257Z,68.72
2019-04-11T21:15:44.021Z,69.39
2019-04-11T21:18:12.726Z,69.14
2019-04-11T21:20:41.442Z,69.02
2019-04-11T21:23:24.484Z,69.56
2019-04-11T21:25:47.101Z,70.60
2019-04-11T21:28:19.859Z,70.82
2019-04-11T21:30:48.573Z,70.92
2019-04-11T21:33:17.435Z,71.02
2019-04-11T21:35:46.151Z,71.05
2019-04-11T21:38:14.869Z,71.49
2019-04-11T21:40:43.630Z,71.64
2019-04-11T21:43:12.337Z,71.83
2019-04-11T21:45:41.039Z,72.75
2019-04-11T21:48:15.797Z,72.60
2019-04-11T21:50:44.505Z,72.49
2019-04-11T21:53:15.932Z,72.35
2019-04-11T21:55:47.181Z,72.57
2019-04-11T21:58:19.233Z,72.78
2019-04-11T22:00:48.342Z,72.61
2019-04-11T22:03:17.050Z,72.41
2019-04-11T22:05:45.793Z,72.24
2019-04-11T22:08:14.502Z,73.26
2019-04-11T22:10:43.206Z,74.34
2019-04-11T22:13:15.863Z,74.39
2019-04-11T22:15:44.578Z,74.48
2019-04-11T22:18:16.740Z,74.66
2019-04-11T22:20:45.912Z,74.37
2019-04-11T22:23:14.681Z,75.14
2019-04-11T22:25:43.398Z,75.39
2019-04-11T22:28:12.104Z,76.31
2019-04-11T22:30:40.857Z,76.18
2019-04-11T22:33:34.251Z,76.41
2019-04-11T22:36:03.001Z,76.30
2019-04-11T22:38:31.707Z,76.18
2019-04-11T22:41:02.174Z,75.86
2019-04-11T22:43:30.850Z,75.81
2019-04-11T22:45:59.553Z,76.04
2019-04-11T22:48:28.295Z,75.71
2019-04-11T22:50:57.004Z,75.46
2019-04-11T22:53:25.713Z,75.92
2019-04-11T22:55:54.424Z,75.88
2019-04-11T22:58:23.128Z,75.68
2019-04-11T23:00:51.882Z,75.76
2019-04-11T23:03:28.169Z,75.82
2019-04-11T23:05:56.915Z,75.46
2019-04-11T23:08:25.635Z,75.17
2019-04-11T23:10:54.344Z,75.17
2019-04-11T23:13:23.055Z,76.00
2019-04-11T23:15:51.755Z,76.45
2019-04-11T23:18:20.516Z,76.07
2019-04-11T23:20:49.223Z,75.66
2019-04-11T23:23:17.924Z,76.00
2019-04-11T23:25:46.640Z,76.12
2019-04-11T23:28:16.397Z,76.33
2019-04-11T23:30:49.486Z,75.57
2019-04-11T23:33:18.958Z,74.98
2019-04-11T23:35:48.818Z,74.93
2019-04-11T23:38:23.589Z,75.58
2019-04-11T23:40:51.905Z,75.34
2019-04-11T23:43:20.728Z,75.06
2019-04-11T23:45:51.181Z,75.84
2019-04-11T23:48:23.729Z,75.84
2019-04-11T23:50:50.295Z,74.34
2019-04-11T23:53:18.999Z,74.68
2019-04-11T23:55:47.755Z,75.00
2019-04-11T23:58:16.459Z,74.88
